createdAt,value
2018-09-21T00:04:10.814Z,15.40
2018-09-21T00:09:40.236Z,15.40
2018-09-21T00:15:09.611Z,15.30
2018-09-21T00:20:38.949Z,15.30
2018-09-21T00:26:08.720Z,15.20
2018-09-21T00:31:37.983Z,15.20
2018-09-21T00:37:07.598Z,15.10
2018-09-21T00:42:38.002Z,15.10
2018-09-21T00:48:07.387Z,15.00
2018-09-21T00:53:37.408Z,15.00
2018-09-21T00:59:07.580Z,15.00
2018-09-21T01:04:44.610Z,14.90
2018-09-21T01:10:14.035Z,14.90
2018-09-21T01:15:43.469Z,14.80
2018-09-21T01:21:12.891Z,14.70
2018-09-21T01:26:42.289Z,14.60
2018-09-21T01:32:11.772Z,14.60
2018-09-21T01:37:41.232Z,14.60
2018-09-21T01:43:10.616Z,14.50
2018-09-21T01:48:40.039Z,14.50
2018-09-21T01:54:09.380Z,14.50
2018-09-21T01:59:38.844Z,14.40
2018-09-21T02:05:08.251Z,14.40
2018-09-21T02:10:37.479Z,14.40
2018-09-21T02:16:06.780Z,14.30
2018-09-21T02:21:36.019Z,14.30
2018-09-21T02:27:05.440Z,14.20
2018-09-21T02:32:34.657Z,14.20
2018-09-21T02:38:03.975Z,14.10
2018-09-21T02:43:33.296Z,14.10
2018-09-21T02:49:02.977Z,14.00
2018-09-21T02:54:32.204Z,14.00
2018-09-21T03:00:01.544Z,13.90
2018-09-21T03:05:30.935Z,13.80
2018-09-21T03:11:00.401Z,13.80
2018-09-21T03:16:29.650Z,13.80
2018-09-21T03:21:59.447Z,13.70
2018-09-21T03:27:28.666Z,13.70
2018-09-21T03:32:57.900Z,13.70
2018-09-21T03:38:27.300Z,13.60
2018-09-21T03:43:56.615Z,13.60
2018-09-21T03:49:25.832Z,13.60
2018-09-21T03:54:55.052Z,13.60
2018-09-21T04:00:24.340Z,13.50
2018-09-21T04:05:53.616Z,13.50
2018-09-21T04:11:22.826Z,13.50
2018-09-21T04:16:52.032Z,13.50
2018-09-21T04:22:21.345Z,13.40
2018-09-21T04:27:50.817Z,13.50
2018-09-21T04:33:20.144Z,13.50
2018-09-21T04:38:49.680Z,13.50
2018-09-21T04:44:23.249Z,13.50
2018-09-21T04:49:52.533Z,13.50
2018-09-21T04:55:21.861Z,13.50
2018-09-21T05:00:51.201Z,13.50
2018-09-21T05:06:20.931Z,13.50
2018-09-21T05:11:50.286Z,13.50
2018-09-21T05:17:19.628Z,13.60
2018-09-21T05:22:48.871Z,13.70
2018-09-21T05:28:18.286Z,13.80
2018-09-21T05:33:47.724Z,13.90
2018-09-21T05:39:17.204Z,14.10
2018-09-21T05:44:46.518Z,14.40
2018-09-21T05:50:15.831Z,14.70
2018-09-21T05:55:45.262Z,15.00
2018-09-21T06:01:14.598Z,15.40
2018-09-21T06:06:43.953Z,15.70
2018-09-21T06:12:14.385Z,16.00
2018-09-21T06:17:43.800Z,16.30
2018-09-21T06:23:13.286Z,16.70
2018-09-21T06:28:42.880Z,17.00
2018-09-21T06:34:12.321Z,17.30
2018-09-21T06:39:41.805Z,17.60
2018-09-21T06:45:11.324Z,17.90
2018-09-21T06:50:42.789Z,18.20
2018-09-21T06:56:12.240Z,18.50
2018-09-21T07:01:41.726Z,18.80
2018-09-21T07:07:11.065Z,19.10
2018-09-21T07:12:40.483Z,19.40
2018-09-21T07:18:09.877Z,19.70
2018-09-21T07:23:40.331Z,20.00
2018-09-21T07:29:09.757Z,20.30
2018-09-21T07:34:39.068Z,20.60
2018-09-21T07:40:08.409Z,21.00
2018-09-21T07:45:37.670Z,21.30
2018-09-21T07:51:07.128Z,21.60
2018-09-21T07:56:36.323Z,21.80
2018-09-21T08:02:05.524Z,22.10
2018-09-21T08:07:34.714Z,22.50
2018-09-21T08:13:03.947Z,22.70
2018-09-21T08:18:33.467Z,23.00
2018-09-21T08:24:04.138Z,23.20
2018-09-21T08:29:33.363Z,23.50
2018-09-21T08:35:02.683Z,23.60
2018-09-21T08:40:31.899Z,23.90
2018-09-21T08:46:01.151Z,24.00
2018-09-21T08:51:30.437Z,24.20
2018-09-21T08:56:59.692Z,24.30
2018-09-21T09:02:29.039Z,24.50
2018-09-21T09:07:58.397Z,24.70
2018-09-21T09:13:27.623Z,24.80
2018-09-21T09:18:56.876Z,24.80
2018-09-21T09:24:26.231Z,25.10
2018-09-21T09:29:55.701Z,25.20
2018-09-21T09:35:26.031Z,25.30
2018-09-21T09:40:55.247Z,25.50
2018-09-21T09:46:25.452Z,25.70
2018-09-21T09:51:54.760Z,26.00
2018-09-21T09:57:24.208Z,26.10
2018-09-21T10:02:54.552Z,26.40
2018-09-21T10:08:23.786Z,26.60
2018-09-21T10:13:53.338Z,26.90
2018-09-21T10:19:23.177Z,27.00
2018-09-21T10:24:52.411Z,27.10
2018-09-21T10:30:21.671Z,27.20
2018-09-21T10:35:51.717Z,27.40
2018-09-21T10:41:21.011Z,27.60
2018-09-21T10:46:51.320Z,27.60
2018-09-21T10:52:20.584Z,27.70
2018-09-21T10:57:49.897Z,27.90
2018-09-21T11:03:19.269Z,27.90
2018-09-21T11:08:52.378Z,27.60
2018-09-21T11:14:21.800Z,27.50
2018-09-21T11:19:51.043Z,27.30
2018-09-21T11:25:20.352Z,27.10
2018-09-21T11:30:49.651Z,27.30
2018-09-21T11:36:18.895Z,27.50
2018-09-21T11:41:48.154Z,27.50
2018-09-21T11:47:17.777Z,27.80
2018-09-21T11:52:47.571Z,28.10
2018-09-21T11:58:16.925Z,28.40
2018-09-21T12:03:46.511Z,28.60
2018-09-21T12:09:15.792Z,28.40
2018-09-21T12:14:45.312Z,28.60
2018-09-21T12:20:14.864Z,28.70
2018-09-21T12:25:44.763Z,28.80
2018-09-21T12:31:14.552Z,29.00
2018-09-21T12:36:44.075Z,28.70
2018-09-21T12:42:13.673Z,28.40
2018-09-21T12:47:43.101Z,28.60
2018-09-21T12:53:12.589Z,29.10
2018-09-21T12:58:42.364Z,29.40
2018-09-21T13:04:11.922Z,29.80
2018-09-21T13:09:41.427Z,29.80
2018-09-21T13:15:12.688Z,29.70
2018-09-21T13:20:44.296Z,29.70
2018-09-21T13:26:14.964Z,29.90
2018-09-21T13:31:44.709Z,30.30
2018-09-21T13:37:14.318Z,30.60
2018-09-21T13:42:45.027Z,30.80
2018-09-21T13:48:14.556Z,30.80
2018-09-21T13:53:43.932Z,29.80
2018-09-21T13:59:13.457Z,30.10
2018-09-21T14:04:43.002Z,29.50
2018-09-21T14:10:12.620Z,29.10
2018-09-21T14:15:42.103Z,28.90
2018-09-21T14:21:11.553Z,28.70
2018-09-21T14:26:41.116Z,28.40
2018-09-21T14:32:10.856Z,28.60
2018-09-21T14:37:40.584Z,28.10
2018-09-21T14:43:10.238Z,27.70
2018-09-21T14:48:40.954Z,27.40
2018-09-21T14:54:10.787Z,27.20
2018-09-21T14:59:40.744Z,27.00
2018-09-21T15:05:10.453Z,26.80
2018-09-21T15:10:40.685Z,26.80
2018-09-21T15:16:10.527Z,26.80
2018-09-21T15:21:40.346Z,26.70
2018-09-21T15:27:09.951Z,26.40
2018-09-21T15:32:39.413Z,26.20
2018-09-21T15:38:09.192Z,26.00
2018-09-21T15:43:38.767Z,25.80
2018-09-21T15:49:08.068Z,25.70
2018-09-21T15:54:37.420Z,25.60
2018-09-21T16:00:08.059Z,25.40
2018-09-21T16:05:38.523Z,25.30
2018-09-21T16:11:10.312Z,25.20
2018-09-21T16:16:39.857Z,25.10
2018-09-21T16:22:09.653Z,25.00
2018-09-21T16:27:39.222Z,24.90
2018-09-21T16:33:11.886Z,24.80
2018-09-21T16:38:42.160Z,24.70
2018-09-21T16:44:12.617Z,24.70
2018-09-21T16:49:42.094Z,24.60
2018-09-21T16:55:11.507Z,24.50
2018-09-21T17:00:40.880Z,24.40
2018-09-21T17:06:10.454Z,24.30
2018-09-21T17:11:39.968Z,24.20
2018-09-21T17:17:10.432Z,24.00
2018-09-21T17:22:39.950Z,23.90
2018-09-21T17:28:09.382Z,23.80
2018-09-21T17:33:40.894Z,23.60
2018-09-21T17:39:12.535Z,23.40
2018-09-21T17:44:43.089Z,23.20
2018-09-21T17:50:12.579Z,23.00
2018-09-21T17:55:42.071Z,22.80
2018-09-21T18:01:11.850Z,22.60
2018-09-21T18:06:41.299Z,22.40
2018-09-21T18:12:10.936Z,22.30
2018-09-21T18:17:40.671Z,22.10
2018-09-21T18:23:10.260Z,21.80
2018-09-21T18:28:39.815Z,21.60
2018-09-21T18:34:09.432Z,21.40
2018-09-21T18:39:38.930Z,21.40
2018-09-21T18:45:08.520Z,21.30
2018-09-21T18:50:38.061Z,21.20
2018-09-21T18:56:07.395Z,21.10
2018-09-21T19:01:36.636Z,21.10
2018-09-21T19:07:10.264Z,21.00
2018-09-21T19:12:39.705Z,20.80
2018-09-21T19:18:09.201Z,20.30
2018-09-21T19:23:38.776Z,19.50
2018-09-21T19:29:08.306Z,18.90
2018-09-21T19:34:37.882Z,18.30
2018-09-21T19:40:07.180Z,17.60
2018-09-21T19:45:36.606Z,16.80
2018-09-21T19:51:05.857Z,16.20
2018-09-21T19:56:36.182Z,15.50
2018-09-21T20:02:05.429Z,15.00
2018-09-21T20:07:34.741Z,14.50
2018-09-21T20:13:06.108Z,14.20
2018-09-21T20:18:35.446Z,14.00
2018-09-21T20:24:04.852Z,13.70
2018-09-21T20:29:34.548Z,13.50
2018-09-21T20:35:03.941Z,13.40
2018-09-21T20:40:33.306Z,13.20
2018-09-21T20:46:03.040Z,13.10
2018-09-21T20:51:32.576Z,12.90
2018-09-21T20:57:01.843Z,12.80
2018-09-21T21:02:31.100Z,12.70
2018-09-21T21:08:00.288Z,12.70
2018-09-21T21:13:29.600Z,12.60
2018-09-21T21:19:00.959Z,12.60
2018-09-21T21:24:31.264Z,12.50
2018-09-21T21:30:00.482Z,12.40
2018-09-21T21:35:29.761Z,12.40
2018-09-21T21:40:59.306Z,12.40
2018-09-21T21:46:29.733Z,12.40
2018-09-21T21:52:11.327Z,12.40
2018-09-21T21:57:41.765Z,12.40
2018-09-21T22:03:11.154Z,12.40
2018-09-21T22:08:40.483Z,12.40
2018-09-21T22:14:10.799Z,12.40
2018-09-21T22:19:40.123Z,12.40
2018-09-21T22:25:09.984Z,12.40
2018-09-21T22:30:40.356Z,12.40
2018-09-21T22:36:10.183Z,12.40
2018-09-21T22:41:39.880Z,12.40
2018-09-21T22:47:10.418Z,12.30
2018-09-21T22:52:39.846Z,12.30
2018-09-21T22:58:10.186Z,12.30
2018-09-21T23:03:39.535Z,12.30
2018-09-21T23:09:11.464Z,12.20
2018-09-21T23:14:40.865Z,12.10
2018-09-21T23:20:10.203Z,12.10
2018-09-21T23:25:40.635Z,12.00
2018-09-21T23:31:10.487Z,12.00
2018-09-21T23:36:40.820Z,12.00
2018-09-21T23:42:10.281Z,11.90
2018-09-21T23:47:40.455Z,11.90
2018-09-21T23:53:09.894Z,11.90
2018-09-21T23:58:39.308Z,11.90
